createdAt,value
2022-08-27T00:02:02.239Z,100946.59
2022-08-27T00:04:33.398Z,100952.00
2022-08-27T00:07:05.069Z,100953.19
2022-08-27T00:09:36.641Z,100957.94
2022-08-27T00:12:08.276Z,100946.72
2022-08-27T00:14:40.643Z,100942.28
2022-08-27T00:17:10.755Z,100954.69
2022-08-27T00:19:41.537Z,100944.31
2022-08-27T00:22:13.134Z,100948.44
2022-08-27T00:24:48.610Z,100941.13
2022-08-27T00:27:20.846Z,100940.03
2022-08-27T00:29:51.018Z,100941.16
2022-08-27T00:32:21.554Z,100936.38
2022-08-27T00:34:51.557Z,100938.75
2022-08-27T00:37:22.177Z,100934.00
2022-08-27T00:39:52.707Z,100935.22
2022-08-27T00:42:23.917Z,100932.66
2022-08-27T00:44:55.095Z,100924.78
2022-08-27T00:47:29.291Z,100924.72
2022-08-27T00:50:15.986Z,100918.88
2022-08-27T00:52:55.712Z,100923.25
2022-08-27T00:55:36.765Z,100931.16
2022-08-27T00:58:10.213Z,100931.38
2022-08-27T01:00:41.296Z,100927.81
2022-08-27T01:03:16.071Z,100924.66
2022-08-27T01:05:49.372Z,100925.19
2022-08-27T01:08:24.460Z,100925.66
2022-08-27T01:10:56.521Z,100924.72
2022-08-27T01:13:58.868Z,100918.91
2022-08-27T01:16:24.769Z,100910.03
2022-08-27T01:18:57.480Z,100918.69
2022-08-27T01:21:49.698Z,100913.38
2022-08-27T01:25:00.229Z,100912.00
2022-08-27T01:27:35.405Z,100912.84
2022-08-27T01:30:07.959Z,100912.16
2022-08-27T01:32:39.511Z,100903.75
2022-08-27T01:35:13.523Z,100910.88
2022-08-27T01:37:45.981Z,100907.78
2022-08-27T01:40:20.732Z,100898.63
2022-08-27T01:42:53.574Z,100893.16
2022-08-27T01:45:30.692Z,100884.78
2022-08-27T01:48:00.777Z,100886.91
2022-08-27T01:50:40.019Z,100899.34
2022-08-27T01:53:14.894Z,100886.34
2022-08-27T01:55:48.347Z,100890.56
2022-08-27T01:58:22.050Z,100891.69
2022-08-27T02:00:56.718Z,100882.09
2022-08-27T02:03:28.098Z,100886.09
2022-08-27T02:05:59.282Z,100879.84
2022-08-27T02:08:29.715Z,100870.34
2022-08-27T02:10:59.850Z,100871.97
2022-08-27T02:13:30.450Z,100878.94
2022-08-27T02:16:00.560Z,100885.31
2022-08-27T02:18:31.204Z,100884.13
2022-08-27T02:21:01.303Z,100883.94
2022-08-27T02:23:31.750Z,100884.84
2022-08-27T02:26:01.915Z,100874.72
2022-08-27T02:28:32.450Z,100878.78
2022-08-27T02:31:02.945Z,100875.75
2022-08-27T02:33:34.492Z,100876.47
2022-08-27T02:36:06.046Z,100877.56
2022-08-27T02:38:36.897Z,100887.81
2022-08-27T02:41:07.868Z,100875.56
2022-08-27T02:43:38.391Z,100881.97
2022-08-27T02:46:08.570Z,100873.28
2022-08-27T02:48:40.166Z,100858.03
2022-08-27T02:51:10.589Z,100862.47
2022-08-27T02:53:44.397Z,100862.19
2022-08-27T02:56:15.976Z,100861.81
2022-08-27T02:58:52.250Z,100858.28
2022-08-27T03:01:22.045Z,100856.94
2022-08-27T03:03:52.528Z,100849.69
2022-08-27T03:06:22.702Z,100848.47
2022-08-27T03:08:53.664Z,100851.25
2022-08-27T03:11:24.647Z,100842.75
2022-08-27T03:13:55.238Z,100837.41
2022-08-27T03:16:25.353Z,100835.06
2022-08-27T03:18:55.959Z,100854.44
2022-08-27T03:21:27.541Z,100842.22
2022-08-27T03:23:58.122Z,100832.91
2022-08-27T03:26:39.254Z,100835.69
2022-08-27T03:29:10.469Z,100830.94
2022-08-27T03:31:40.750Z,100828.81
2022-08-27T03:34:11.455Z,100830.19
2022-08-27T03:36:41.042Z,100824.88
2022-08-27T03:39:11.546Z,100807.19
2022-08-27T03:41:54.055Z,100802.47
2022-08-27T03:44:28.039Z,100815.41
2022-08-27T03:46:58.264Z,100816.25
2022-08-27T03:49:28.758Z,100807.59
2022-08-27T03:51:58.778Z,100813.25
2022-08-27T03:54:29.323Z,100815.91
2022-08-27T03:57:01.386Z,100808.91
2022-08-27T03:59:32.957Z,100802.34
2022-08-27T04:02:04.017Z,100794.81
2022-08-27T04:04:37.123Z,100801.34
2022-08-27T04:07:10.038Z,100787.56
2022-08-27T04:09:40.528Z,100796.94
2022-08-27T04:12:10.629Z,100783.75
2022-08-27T04:14:41.259Z,100785.84
2022-08-27T04:17:11.334Z,100776.44
2022-08-27T04:19:41.868Z,100781.81
2022-08-27T04:22:12.087Z,100777.56
2022-08-27T04:24:42.772Z,100763.63
2022-08-27T04:27:12.806Z,100761.97
2022-08-27T04:29:43.638Z,100763.53
2022-08-27T04:32:14.654Z,100767.63
2022-08-27T04:34:45.124Z,100751.69
2022-08-27T04:37:16.020Z,100753.44
2022-08-27T04:39:55.105Z,100746.97
2022-08-27T04:42:25.591Z,100734.22
2022-08-27T04:44:56.214Z,100747.28
2022-08-27T04:47:25.862Z,100741.25
2022-08-27T04:49:56.243Z,100734.69
2022-08-27T04:52:27.456Z,100730.00
2022-08-27T04:54:58.127Z,100735.19
2022-08-27T04:57:27.773Z,100733.22
2022-08-27T04:59:59.038Z,100726.03
2022-08-27T05:02:29.555Z,100717.00
2022-08-27T05:04:59.571Z,100723.63
2022-08-27T05:07:30.097Z,100726.41
2022-08-27T05:10:00.197Z,100725.50
2022-08-27T05:12:30.795Z,100711.31
2022-08-27T05:15:00.626Z,100713.81
2022-08-27T05:17:32.594Z,100706.69
2022-08-27T05:20:02.789Z,100708.63
2022-08-27T05:22:35.911Z,100689.97
2022-08-27T05:25:07.408Z,100703.97
2022-08-27T05:27:37.904Z,100702.75
2022-08-27T05:30:08.519Z,100696.09
2022-08-27T05:32:39.134Z,100687.91
2022-08-27T05:35:13.910Z,100686.34
2022-08-27T05:37:46.057Z,100687.03
2022-08-27T05:40:16.105Z,100683.34
2022-08-27T05:42:49.268Z,100690.09
2022-08-27T05:45:21.215Z,100685.53
2022-08-27T05:47:51.947Z,100686.13
2022-08-27T05:50:23.687Z,100659.53
2022-08-27T05:52:55.795Z,100675.97
2022-08-27T05:55:25.806Z,100663.81
2022-08-27T05:57:55.626Z,100660.22
2022-08-27T06:00:44.215Z,100659.56
2022-08-27T06:03:19.062Z,100659.69
2022-08-27T06:05:49.524Z,100629.75
2022-08-27T06:08:19.506Z,100648.84
2022-08-27T06:10:50.036Z,100654.47
2022-08-27T06:13:20.274Z,100649.16
2022-08-27T06:15:51.061Z,100649.69
2022-08-27T06:18:21.069Z,100643.88
2022-08-27T06:20:51.460Z,100632.47
2022-08-27T06:23:28.192Z,100632.66
2022-08-27T06:25:59.546Z,100629.44
2022-08-27T06:28:31.115Z,100619.50
2022-08-27T06:31:20.197Z,100619.25
2022-08-27T06:33:55.931Z,100621.91
2022-08-27T06:36:27.742Z,100615.38
2022-08-27T06:38:59.210Z,100626.41
2022-08-27T06:41:30.376Z,100617.16
2022-08-27T06:44:00.510Z,100609.81
2022-08-27T06:46:34.272Z,100615.56
2022-08-27T06:49:04.464Z,100607.38
2022-08-27T06:51:37.254Z,100599.25
2022-08-27T06:54:13.334Z,100590.03
2022-08-27T06:56:45.640Z,100586.53
2022-08-27T06:59:17.843Z,100590.91
2022-08-27T07:01:52.257Z,100588.81
2022-08-27T07:04:32.154Z,100583.09
2022-08-27T07:07:04.508Z,100583.69
2022-08-27T07:09:36.008Z,100588.38
2022-08-27T07:12:08.146Z,100576.34
2022-08-27T07:14:38.554Z,100565.72
2022-08-27T07:17:11.327Z,100557.53
2022-08-27T07:19:46.573Z,100553.25
2022-08-27T07:22:16.934Z,100549.63
2022-08-27T07:24:46.980Z,100534.41
2022-08-27T07:27:17.625Z,100538.00
2022-08-27T07:29:47.649Z,100533.81
2022-08-27T07:32:18.082Z,100535.81
2022-08-27T07:34:47.590Z,100523.81
2022-08-27T07:37:17.408Z,100524.16
2022-08-27T07:39:48.867Z,100521.78
2022-08-27T07:42:37.712Z,100519.16
2022-08-27T07:45:08.665Z,100515.69
2022-08-27T07:47:38.639Z,100514.09
2022-08-27T07:50:09.104Z,100514.63
2022-08-27T07:52:39.823Z,100510.13
2022-08-27T07:55:10.332Z,100503.56
2022-08-27T07:57:41.073Z,100502.72
2022-08-27T08:00:12.313Z,100501.69
2022-08-27T08:03:03.046Z,100505.16
2022-08-27T08:05:33.114Z,100505.31
2022-08-27T08:08:04.943Z,100501.41
2022-08-27T08:10:38.117Z,100514.72
2022-08-27T08:13:09.412Z,100514.81
2022-08-27T08:15:40.052Z,100504.25
2022-08-27T08:18:10.729Z,100511.16
2022-08-27T08:20:57.728Z,100511.00
2022-08-27T08:23:29.559Z,100510.56
2022-08-27T08:25:59.680Z,100521.66
2022-08-27T08:28:31.382Z,100513.63
2022-08-27T08:31:02.427Z,100528.47
2022-08-27T08:33:35.435Z,100520.34
2022-08-27T08:36:09.047Z,100526.53
2022-08-27T08:38:41.054Z,100524.63
2022-08-27T08:41:44.082Z,100520.25
2022-08-27T08:44:26.941Z,100525.25
2022-08-27T08:47:11.822Z,100523.78
2022-08-27T08:49:49.364Z,100523.41
2022-08-27T08:52:51.775Z,100528.06
2022-08-27T08:55:57.820Z,100527.91
2022-08-27T08:58:49.311Z,100525.41
2022-08-27T09:01:21.942Z,100532.78
2022-08-27T09:03:58.389Z,100535.53
2022-08-27T09:06:45.259Z,100532.97
2022-08-27T09:09:27.489Z,100522.88
2022-08-27T09:12:16.422Z,100542.22
2022-08-27T09:14:54.039Z,100547.50
2022-08-27T09:17:24.919Z,100543.31
2022-08-27T09:19:55.702Z,100551.03
2022-08-27T09:22:46.491Z,100550.47
2022-08-27T09:25:21.697Z,100560.81
2022-08-27T09:27:58.675Z,100553.41
2022-08-27T09:30:32.484Z,100554.66
2022-08-27T09:33:08.263Z,100543.91
2022-08-27T09:35:46.031Z,100563.31
2022-08-27T09:38:56.843Z,100557.88
2022-08-27T09:41:44.386Z,100554.75
2022-08-27T09:44:18.906Z,100544.34
2022-08-27T09:46:59.041Z,100558.19
2022-08-27T09:49:29.805Z,100559.66
2022-08-27T09:52:00.842Z,100562.06
2022-08-27T09:54:49.287Z,100560.06
2022-08-27T09:57:35.614Z,100558.03
2022-08-27T10:00:09.997Z,100572.91
2022-08-27T10:02:52.605Z,100560.78
2022-08-27T10:05:48.450Z,100571.69
2022-08-27T10:08:42.877Z,100565.53
2022-08-27T10:11:22.144Z,100581.84
2022-08-27T10:14:15.635Z,100588.25
2022-08-27T10:16:54.738Z,100584.47
2022-08-27T10:20:02.062Z,100585.13
2022-08-27T10:22:39.934Z,100593.31
2022-08-27T10:25:40.887Z,100599.72
2022-08-27T10:28:28.490Z,100591.72
2022-08-27T10:31:09.388Z,100597.97
2022-08-27T10:33:51.245Z,100600.25
2022-08-27T10:36:45.753Z,100591.69
2022-08-27T10:39:25.583Z,100595.66
2022-08-27T10:42:18.135Z,100593.53
2022-08-27T10:44:55.131Z,100602.03
2022-08-27T10:47:32.323Z,100576.34
2022-08-27T10:50:07.983Z,100597.38
2022-08-27T10:52:51.804Z,100589.81
2022-08-27T10:55:31.226Z,100600.91
2022-08-27T10:58:31.606Z,100601.13
2022-08-27T11:01:29.435Z,100615.91
2022-08-27T11:04:12.950Z,100606.00
2022-08-27T11:07:08.743Z,100604.88
2022-08-27T11:09:51.584Z,100604.53
2022-08-27T11:12:43.644Z,100610.22
2022-08-27T11:15:28.849Z,100626.34
2022-08-27T11:18:17.237Z,100626.84
2022-08-27T11:21:03.369Z,100617.28
2022-08-27T11:23:45.073Z,100623.25
2022-08-27T11:26:15.902Z,100616.75
2022-08-27T11:29:02.571Z,100626.69
2022-08-27T11:31:36.323Z,100626.44
2022-08-27T11:34:53.295Z,100631.81
2022-08-27T11:37:30.602Z,100632.63
2022-08-27T11:40:20.097Z,100624.69
2022-08-27T11:43:14.996Z,100631.81
2022-08-27T11:45:58.922Z,100631.16
2022-08-27T11:48:44.668Z,100627.31
2022-08-27T11:51:29.827Z,100624.38
2022-08-27T11:54:08.341Z,100629.97
2022-08-27T11:56:44.705Z,100635.56
2022-08-27T11:59:25.315Z,100630.59
2022-08-27T12:01:57.890Z,100633.13
2022-08-27T12:04:38.992Z,100631.97
2022-08-27T12:07:24.937Z,100636.94
2022-08-27T12:09:58.903Z,100638.66
2022-08-27T12:12:49.943Z,100652.13
2022-08-27T12:16:01.356Z,100641.63
2022-08-27T12:19:00.901Z,100640.31
2022-08-27T12:22:04.125Z,100648.56
2022-08-27T12:24:59.159Z,100640.34
2022-08-27T12:27:36.218Z,100647.38
2022-08-27T12:30:08.428Z,100637.97
2022-08-27T12:32:38.947Z,100649.25
2022-08-27T12:35:22.717Z,100643.50
2022-08-27T12:38:16.229Z,100633.22
2022-08-27T12:40:53.746Z,100630.34
2022-08-27T12:43:27.258Z,100637.09
2022-08-27T12:46:10.859Z,100627.09
2022-08-27T12:48:55.049Z,100634.31
2022-08-27T12:51:28.032Z,100639.03
2022-08-27T12:54:29.923Z,100637.75
2022-08-27T12:57:26.750Z,100627.97
2022-08-27T13:00:03.655Z,100630.59
2022-08-27T13:03:00.723Z,100640.28
2022-08-27T13:05:43.460Z,100641.25
2022-08-27T13:08:27.595Z,100637.06
2022-08-27T13:11:08.236Z,100635.00
2022-08-27T13:13:42.739Z,100628.00
2022-08-27T13:16:13.140Z,100620.81
2022-08-27T13:18:43.629Z,100626.28
2022-08-27T13:21:23.584Z,100633.66
2022-08-27T13:24:06.529Z,100628.44
2022-08-27T13:26:39.869Z,100629.72
2022-08-27T13:29:11.651Z,100621.09
2022-08-27T13:31:42.057Z,100612.69
2022-08-27T13:34:17.018Z,100608.69
2022-08-27T13:37:01.293Z,100608.41
2022-08-27T13:39:31.951Z,100591.91
2022-08-27T13:42:07.373Z,100604.00
2022-08-27T13:44:41.626Z,100594.06
2022-08-27T13:47:22.721Z,100595.31
2022-08-27T13:50:03.394Z,100596.78
2022-08-27T13:52:36.860Z,100585.25
2022-08-27T13:55:17.839Z,100592.28
2022-08-27T13:57:53.292Z,100587.91
2022-08-27T14:00:35.039Z,100587.25
2022-08-27T14:03:05.309Z,100582.81
2022-08-27T14:05:38.002Z,100593.63
2022-08-27T14:08:19.365Z,100580.44
2022-08-27T14:10:59.988Z,100588.25
2022-08-27T14:13:31.878Z,100583.13
2022-08-27T14:16:02.346Z,100577.56
2022-08-27T14:18:58.278Z,100576.75
2022-08-27T14:21:26.242Z,100575.44
2022-08-27T14:23:56.329Z,100577.91
2022-08-27T14:26:27.818Z,100569.34
2022-08-27T14:28:58.195Z,100569.94
2022-08-27T14:31:29.100Z,100562.88
2022-08-27T14:33:59.178Z,100568.47
2022-08-27T14:36:39.984Z,100561.16
2022-08-27T14:39:12.025Z,100557.38
2022-08-27T14:41:42.552Z,100552.75
2022-08-27T14:44:14.824Z,100547.69
2022-08-27T14:46:45.037Z,100544.41
2022-08-27T14:49:27.467Z,100539.06
2022-08-27T14:51:57.495Z,100531.06
2022-08-27T14:54:28.928Z,100530.13
2022-08-27T14:57:04.318Z,100531.75
2022-08-27T14:59:35.854Z,100530.19
2022-08-27T15:02:12.284Z,100518.47
2022-08-27T15:04:42.774Z,100508.06
2022-08-27T15:07:17.986Z,100510.53
2022-08-27T15:09:49.915Z,100497.72
2022-08-27T15:12:26.283Z,100500.22
2022-08-27T15:14:57.439Z,100499.94
2022-08-27T15:17:34.214Z,100487.25
2022-08-27T15:20:10.091Z,100493.53
2022-08-27T15:22:48.884Z,100492.19
2022-08-27T15:25:20.347Z,100498.38
2022-08-27T15:27:50.989Z,100497.47
2022-08-27T15:30:29.520Z,100491.03
2022-08-27T15:32:59.527Z,100482.56
2022-08-27T15:35:30.103Z,100482.28
2022-08-27T15:38:00.559Z,100462.47
2022-08-27T15:40:36.424Z,100470.28
2022-08-27T15:43:08.361Z,100481.03
2022-08-27T15:45:39.010Z,100475.66
2022-08-27T15:48:09.046Z,100465.75
2022-08-27T15:50:39.639Z,100445.22
2022-08-27T15:53:10.767Z,100453.19
2022-08-27T15:55:44.034Z,100448.03
2022-08-27T15:58:14.112Z,100445.69
2022-08-27T16:00:45.346Z,100446.13
2022-08-27T16:03:17.639Z,100444.06
2022-08-27T16:05:51.174Z,100434.03
2022-08-27T16:08:21.457Z,100428.13
2022-08-27T16:10:51.926Z,100424.19
2022-08-27T16:13:22.369Z,100421.75
2022-08-27T16:15:53.580Z,100417.19
2022-08-27T16:18:30.318Z,100408.66
2022-08-27T16:21:02.994Z,100412.47
2022-08-27T16:23:34.186Z,100391.06
2022-08-27T16:26:05.279Z,100390.69
2022-08-27T16:28:35.328Z,100381.13
2022-08-27T16:31:10.396Z,100372.53
2022-08-27T16:33:45.671Z,100358.59
2022-08-27T16:36:16.341Z,100357.19
2022-08-27T16:38:46.623Z,100358.16
2022-08-27T16:41:17.039Z,100357.88
2022-08-27T16:43:49.692Z,100351.53
2022-08-27T16:46:20.980Z,100339.97
2022-08-27T16:49:09.168Z,100339.69
2022-08-27T16:51:40.248Z,100326.75
2022-08-27T16:54:13.632Z,100333.59
2022-08-27T16:56:46.292Z,100328.56
2022-08-27T16:59:16.949Z,100329.06
2022-08-27T17:01:51.980Z,100326.03
2022-08-27T17:04:29.602Z,100336.41
2022-08-27T17:07:02.851Z,100326.16
2022-08-27T17:09:33.627Z,100323.81
2022-08-27T17:12:06.246Z,100319.50
2022-08-27T17:14:40.486Z,100310.22
2022-08-27T17:17:10.921Z,100302.34
2022-08-27T17:19:41.198Z,100305.66
2022-08-27T17:22:11.886Z,100291.31
2022-08-27T17:24:42.722Z,100292.84
2022-08-27T17:27:13.231Z,100294.84
2022-08-27T17:29:43.192Z,100279.50
2022-08-27T17:32:14.005Z,100283.69
2022-08-27T17:34:44.016Z,100288.56
2022-08-27T17:37:15.070Z,100287.81
2022-08-27T17:39:47.184Z,100285.69
2022-08-27T17:42:18.126Z,100272.69
2022-08-27T17:44:48.259Z,100289.31
2022-08-27T17:47:18.764Z,100277.94
2022-08-27T17:49:48.641Z,100281.13
2022-08-27T17:52:19.886Z,100276.63
2022-08-27T17:54:57.328Z,100278.97
2022-08-27T17:57:40.302Z,100265.72
2022-08-27T18:00:14.363Z,100284.06
2022-08-27T18:02:54.931Z,100275.06
2022-08-27T18:05:26.521Z,100281.31
2022-08-27T18:07:58.586Z,100273.34
2022-08-27T18:10:39.139Z,100267.84
2022-08-27T18:13:11.046Z,100261.69
2022-08-27T18:15:43.025Z,100264.47
2022-08-27T18:18:14.446Z,100263.56
2022-08-27T18:20:46.502Z,100258.09
2022-08-27T18:23:17.123Z,100267.31
2022-08-27T18:25:47.315Z,100266.59
2022-08-27T18:28:20.105Z,100263.72
2022-08-27T18:30:51.822Z,100261.41
2022-08-27T18:33:22.455Z,100250.69
2022-08-27T18:35:55.655Z,100253.91
2022-08-27T18:38:26.418Z,100246.56
2022-08-27T18:40:58.713Z,100247.31
2022-08-27T18:43:36.236Z,100250.28
2022-08-27T18:46:07.174Z,100247.66
2022-08-27T18:48:38.351Z,100246.09
2022-08-27T18:51:10.276Z,100245.72
2022-08-27T18:53:41.486Z,100266.31
2022-08-27T18:56:16.636Z,100268.47
2022-08-27T18:58:48.835Z,100254.06
2022-08-27T19:01:26.829Z,100261.94
2022-08-27T19:03:59.348Z,100251.94
2022-08-27T19:06:29.380Z,100243.72
2022-08-27T19:09:00.188Z,100245.53
2022-08-27T19:11:32.587Z,100257.59
2022-08-27T19:14:03.069Z,100261.31
2022-08-27T19:16:44.554Z,100263.53
2022-08-27T19:19:19.873Z,100271.34
2022-08-27T19:21:51.738Z,100267.72
2022-08-27T19:24:24.303Z,100270.16
2022-08-27T19:26:55.787Z,100261.22
2022-08-27T19:29:28.396Z,100266.94
2022-08-27T19:31:58.483Z,100268.41
2022-08-27T19:34:29.210Z,100264.81
2022-08-27T19:37:01.796Z,100273.75
2022-08-27T19:39:35.131Z,100275.78
2022-08-27T19:42:08.192Z,100279.88
2022-08-27T19:44:38.947Z,100279.13
2022-08-27T19:47:11.522Z,100286.28
2022-08-27T19:49:46.155Z,100288.19
2022-08-27T19:52:16.192Z,100286.72
2022-08-27T19:55:10.220Z,100288.88
2022-08-27T19:57:37.538Z,100290.09
2022-08-27T20:00:10.482Z,100297.53
2022-08-27T20:02:41.118Z,100301.28
2022-08-27T20:05:19.439Z,100293.19
2022-08-27T20:07:54.054Z,100298.22
2022-08-27T20:10:36.291Z,100297.34
2022-08-27T20:13:08.070Z,100301.59
2022-08-27T20:15:42.133Z,100295.75
2022-08-27T20:18:14.066Z,100295.38
2022-08-27T20:20:44.531Z,100316.13
2022-08-27T20:23:14.586Z,100313.72
2022-08-27T20:25:45.634Z,100312.22
2022-08-27T20:28:38.269Z,100304.16
2022-08-27T20:31:06.818Z,100320.13
2022-08-27T20:33:36.872Z,100317.25
2022-08-27T20:36:09.693Z,100321.19
2022-08-27T20:38:40.481Z,100325.53
2022-08-27T20:41:11.045Z,100325.84
2022-08-27T20:43:41.145Z,100325.16
2022-08-27T20:46:11.822Z,100321.53
2022-08-27T20:48:41.898Z,100329.03
2022-08-27T20:51:12.550Z,100333.22
2022-08-27T20:53:43.144Z,100342.63
2022-08-27T20:56:13.485Z,100348.91
2022-08-27T20:59:02.030Z,100348.38
2022-08-27T21:01:33.104Z,100339.19
2022-08-27T21:04:03.717Z,100348.81
2022-08-27T21:06:33.822Z,100352.66
2022-08-27T21:09:03.993Z,100353.28
2022-08-27T21:11:34.654Z,100368.22
2022-08-27T21:14:04.932Z,100363.81
2022-08-27T21:16:36.810Z,100362.09
2022-08-27T21:19:06.798Z,100375.53
2022-08-27T21:21:36.670Z,100373.06
2022-08-27T21:24:07.343Z,100372.69
2022-08-27T21:26:37.525Z,100374.84
2022-08-27T21:29:07.936Z,100371.88
2022-08-27T21:31:37.970Z,100379.13
2022-08-27T21:34:08.538Z,100380.81
2022-08-27T21:36:38.777Z,100383.81
2022-08-27T21:39:09.169Z,100379.69
2022-08-27T21:41:39.893Z,100387.09
2022-08-27T21:44:10.327Z,100383.53
2022-08-27T21:46:40.397Z,100379.84
2022-08-27T21:49:10.855Z,100382.31
2022-08-27T21:51:40.890Z,100383.34
2022-08-27T21:54:11.424Z,100387.44
2022-08-27T21:56:41.436Z,100377.91
2022-08-27T21:59:11.915Z,100389.28
2022-08-27T22:01:42.058Z,100399.28
2022-08-27T22:04:12.475Z,100402.06
2022-08-27T22:06:42.771Z,100396.91
2022-08-27T22:09:13.182Z,100376.66
2022-08-27T22:11:47.075Z,100385.19
2022-08-27T22:14:17.566Z,100382.59
2022-08-27T22:16:47.589Z,100378.13
2022-08-27T22:19:18.479Z,100378.69
2022-08-27T22:21:48.691Z,100384.81
2022-08-27T22:24:19.307Z,100380.03
2022-08-27T22:26:49.536Z,100375.47
2022-08-27T22:29:20.179Z,100377.66
2022-08-27T22:31:50.386Z,100383.66
2022-08-27T22:34:21.608Z,100386.78
2022-08-27T22:36:51.588Z,100391.84
2022-08-27T22:39:22.137Z,100390.72
2022-08-27T22:41:58.851Z,100400.88
2022-08-27T22:44:30.983Z,100413.59
2022-08-27T22:47:01.132Z,100420.50
2022-08-27T22:49:31.813Z,100417.81
2022-08-27T22:52:02.491Z,100423.44
2022-08-27T22:54:32.955Z,100426.75
2022-08-27T22:57:03.011Z,100443.84
2022-08-27T22:59:34.513Z,100450.09
2022-08-27T23:02:06.567Z,100447.06
2022-08-27T23:04:53.960Z,100458.25
2022-08-27T23:07:26.238Z,100464.06
2022-08-27T23:09:56.735Z,100471.56
2022-08-27T23:12:27.287Z,100486.16
2022-08-27T23:14:57.671Z,100486.53
2022-08-27T23:17:27.626Z,100499.41
2022-08-27T23:19:58.905Z,100487.88
2022-08-27T23:22:28.910Z,100486.09
2022-08-27T23:25:17.675Z,100491.16
2022-08-27T23:27:48.741Z,100499.94
2022-08-27T23:30:19.501Z,100499.63
2022-08-27T23:32:53.926Z,100487.47
2022-08-27T23:35:26.686Z,100517.47
2022-08-27T23:37:57.401Z,100524.28
2022-08-27T23:40:28.006Z,100531.06
2022-08-27T23:42:58.299Z,100537.50
2022-08-27T23:45:29.005Z,100533.94
2022-08-27T23:47:59.045Z,100548.84
2022-08-27T23:50:34.352Z,100545.50
2022-08-27T23:53:06.601Z,100550.09
2022-08-27T23:55:38.878Z,100557.50
2022-08-27T23:58:09.901Z,100566.34
